Airports



Preferred Routing

CYVR

From CYVR

CYYJ - YVR APASS7 (EVEN ALT)
CYCD - YVR TREEL (EVEN ALT)
CYLW - JANEK SEKAB SEKAB4 (ODD ALT)
CYXS - EMPOV (EVEN ALT)
CYEG - VIDRI Q949 ELLKS ELLKS3 (ODD ALT)
CYYC - DAPED PETLI MENBO Q983 NORET IGVEP6 (ODD ALT)
KSEA (RNAV Jet) - YVR ROESH MARNR MARNR7 (ODD ALT)
KSEA (Prop/Non-RNAV) - YVR JAWBN6 (ODD ALT)
KPDX - YVR SEA BUWZO KRATR2 (ODD ALT)
KSFO - YYJ ELMAA Q1 ETCHY MLBEC BDEGA3 (ODD ALT)

To CYVR

08L/08R
CYYJ - OMVEX ILAND5 (ODD ALT)
CYCD - ILATI MEPMU ILAND5 (ODD ALT)
CYLW - MERYT BOOTH CANUC5 (EVEN ALT)
CYXS - YXS YWL Q800 ELIDI WHSLR7 (ODD ALT)
CYEG - ANDIE Q860 MERYT BOOTH CANUC5 (EVEN ALT)
CYYC - BOTAG Q894 BOOTH CANUC5 (EVEN ALT)
KSEA - PAE GRIZZ7 (EVEN ALT)
KPDX - BTG J1 SEA PAE GRIZZ7 (EVEN ALT)


26L/26R
CYYJ - BUICK DUXUM5 (ODD ALT)
CYCD - ILATI BUICK DUXUM5 (ODD ALT)
CYLW - MERYT BOOTH CANUC5 (EVEN ALT)
CYXS - YXS YWL Q800 ELIDI WHSLR7 (ODD ALT)
CYEG - ANDIE Q860 MERYT BOOTH CANUC5 (EVEN ALT)
CYYC - BOTAG Q894 BOOTH CANUC5 (EVEN ALT)
KSEA - PAE GRIZZ7 (EVEN ALT)
KPDX - BTG J1 SEA PAE GRIZZ7 (EVEN ALT)


CYYJ

From CYYJ

CYLW - HUH YDC PIGLU4 (ODD ALT)
CYYC - HUH DAPED PETLI MENBO Q983 NORET IGVEP6 (ODD ALT)
CYEG - HUH DAPED PETLI ROMRA Q949 ELLKS ELLKS3 (ODD ALT)
CYXS - UQQ EMPOV (ODD ALT)
KSEA - JIGEB MARNR7 (ODD ALT)
KPDX - SEA HELNS KRATR2 (ODD ALT)


To CYYJ

CYYC - BOTAG Q894 BOOTH APASS7 (EVEN ALT)
CYEG - ANDIE Q860 MERYT BOOTH APASS7 (EVEN ALT)
CYXS - YXS YVR AP APASS7 (EVEN ALT)
KSEA - ARRIE DISCO DISCO4 (EVEN ALT)
KPDX - BTG OLM DISCO DISCO4 (EVEN ALT)


CYLW

From CYLW

CYYJ - MERYT BOOTH APASS7 (EVEN ALT)
CYYC - WHATS MENBO Q983 IGVEP IGVEP6 (ODD ALT)
CYEG - ROMRA Q949 ELLKS ELLKS3 (ODD ALT)
CYXS - YWB YXS (EVEN ALT)
KSEA - MERYT BOOTH YVR MARNR MARNR7 (EVEN ALT)


To CYLW

CYYC - BOTAG SIMTA BINVO ROBTI NORIP4 (EVEN ALT)
CYEG - ANDIE NADPI ENDBY HUMEK WTMAN (EVEN ALT)
CYXS - WTMAN (ODD ALT)
KSEA - SEA ALPSE YDC PIGLU4 (ODD ALT)



Current ATIS/METAR

CYVR 241300Z 23005KT 6SM BR FEW007 FEW020 SCT049 BKN070 BKN120 06/06 A3012 RMK SF1SC1SC2AC2AS2 SF TR SLP202

Vancouver International Airport is the busiest airport within the FIR on VATSIM and in real life by passenger volume. The airport has won the SkyTrax award for Best North American Airport 12 years in a row. YVR features 2 main parallel runways, one shorter crosswind runway, and a floatplane terminal on the river adjacent to the airport.


Scenery

FSDreamTean - for FSX and P3D

Payware

View More

FSimStudios - For MSFS

Payware

View More

Project YVR - for MSFS

Freeware

View More

Current ATIS/METAR

CYYJ 241300Z 22002KT 20SM FEW075 FEW095 OVC120 06/06 A3013 RMK AC1AC1AC6 SLP205

Victoria International Airport is located just north of the province’s capital of Victoria, and it is Vancouver Island’s largest airport both in terms of movements and passenger volume. The airport sees an extensive mix of commercial, general aviation, and floatplane traffic. Despite the short distance, the airport sees a significant number of flights between YVR and YYJ both on the network and in real life.


Scenery

SimAddons - For P3Dv4 and MSFS

Payware

View More

YYJ Victoria Dock - For MSFS

Freeware

View More

Victoria CYYJ Improvements

Freeware

View More

Current ATIS/METAR

CYLW 241300Z AUTO 19006KT 9SM BKN055 BKN084 OVC110 06/01 A2992 RMK SLP144

Kelowna International Airport is located in the okanagan valley and is Canada’s 10th busiest airport by passenger volume. The surrounding scenery makes for a stunning VFR flight and incredible IFR approaches. The airport is only 30-60 minutes away from major airports such as YVR, YYC, YEG, and SEA, making it an attractive destination for many VATSIM pilots.


Scenery

SimAddons - For P3Dv4 and MSFS

Payware

View More

FSimStudios - For MSFS

Payware

View More

CYLW Kelowna, British Columbia

Freeware

View More

CYLW Waterfront

Freeware

View More

Current ATIS/METAR

CYXS 241300Z AUTO 21012KT 9SM OVC071 M01/M07 A2986 RMK SLP143

Prince George Airport is a mid-sized airport located in northern British Columbia. The airport sees a moderate amount of airline and GA traffic in real life. Being located just an hour or less away from major airports such as YVR, YEG, and YYC it is an attractive destination and departure aerodrome for many pilots on VATSIM.


Scenery

SimAddons - For P3Dv4 and MSFS

Payware

View More

Current ATIS/METAR

CYXX 241300Z 20006KT 13SM BKN045 OVC060 07/06 A3012 RMK SC5SC3 SLP203

Abbotsford International Airport is the second largest airport located in the lower mainland in terms of physical size. The airport sees extensive general aviation fixed and rotary wing traffic. C130 Hercules transport aircraft are often spotted at the airport as YXX is home to one of only two worldwide C130 heavy maintenance centres. The airport is also home to Canada’s largest airshow that is held in the summer annually both on VATSIM and in real life.


Scenery

CYXX - Abbotsford International Airport - for MSFS

Freeware
View More

BC Helicopters - For MSFS

Freeware
View More

Current ATIS/METAR

CYQQ 241300Z 00000KT 20SM SCT025 BKN060 OVC079 06/05 A3013 RMK SC4SC2AC2 DENSITY ALT -1119FT SLP203

Canadian Forces Base Comox is located on the east coast of Vancouver Island and is primarily operated by the RCAF. However the airport also has scheduled airline traffic as well as a limited amount of general aviation traffic. The airport is one of three in the FIR to operate its own terminal (the ATC position) which covers a large portion of the Sunshine Coast and as a result sees a large number of general aviation overflights as well.


Scenery

SimAddons - For P3Dv4 and MSFS

Payware

View More

CYQQ - 19 Wing Comox - For MSFS

Freeware
View More